Terminal Aerodrome Forecast
Issued by NWS

Current Version | Previous Version | Text Only | Print | Product List | Glossary On
Versions: 1 2 3 4 5 6 7 8 9 10 11 12 13 14 15 16 17 18 19 20 21 22 23 24 25 26 27
000
FTUS45 KGJT 210126 AAA
TAFVEL
TAF AMD
KVEL 210126Z 2101/2124 00000KT P6SM VCSH FEW040 SCT050 BKN070
     FM211300 06004KT P6SM VCSH OVC008
     FM211500 12004KT P6SM VCSH OVC003
     FM212000 23004KT P6SM VCSH OVC010
     FM212300 28004KT P6SM OVC025=

USA.gov is the U.S. government's official web portal to all federal, state and local government web resources and services.